Time;durP1;ratioP1;P1;durP2;ratioP2;P2;SDS_P1;SDS_P2;PMS_P1;PMS_P2;Temp;Humidity;BMP_temperature;BMP_pressure;BME280_temperature;BME280_humidity;BME280_pressure;Samples;Min_cycle;Max_cycle;Signal;HPM_P1;HPM_P2
2023/04/13 19:29:05;;;;;;;3.10;1.37;;;20.60;61.90;;;;;;5267485;22;20488;-93
2023/04/13 19:31:38;;;;;;;3.40;1.23;;;20.50;61.90;;;;;;5062624;28;20456;-95
2023/04/13 19:34:06;;;;;;;4.23;1.40;;;20.60;61.90;;;;;;5066114;28;20485;-93
2023/04/13 19:36:34;;;;;;;3.97;1.40;;;20.60;61.90;;;;;;5062369;28;20445;-92
2023/04/13 19:39:04;;;;;;;5.57;1.17;;;20.60;62.70;;;;;;5060330;28;20544;-96
2023/04/13 19:41:32;;;;;;;10.50;2.10;;;20.60;61.90;;;;;;5059923;28;20449;-92
2023/04/13 19:43:59;;;;;;;2.40;1.43;;;20.60;61.70;;;;;;5060546;28;20519;-92
2023/04/13 19:46:31;;;;;;;11.83;1.73;;;20.60;61.90;;;;;;5059774;28;20792;-92
2023/04/13 19:49:00;;;;;;;2.07;1.10;;;20.70;61.90;;;;;;5059750;28;20545;-92
2023/04/13 19:51:27;;;;;;;1.80;1.50;;;20.70;62.00;;;;;;5065962;28;20468;-92
2023/04/13 19:56:41;;;;;;;7.63;1.20;;;20.70;61.90;;;;;;5068896;28;20567;-93
2023/04/13 19:59:26;;;;;;;6.63;1.53;;;20.70;61.80;;;;;;5067909;28;20818;-94
2023/04/13 20:02:03;;;;;;;5.60;1.80;;;20.70;62.00;;;;;;5063368;28;20491;-94
2023/04/13 20:04:30;;;;;;;3.27;1.30;;;20.70;61.90;;;;;;5062292;28;20421;-93
2023/04/13 20:06:56;;;;;;;1.83;1.40;;;20.70;61.80;;;;;;5064284;28;20441;-92
2023/04/13 20:09:23;;;;;;;1.53;1.17;;;20.70;61.90;;;;;;5063035;28;20864;-94
2023/04/13 20:11:50;;;;;;;4.17;1.40;;;20.70;61.90;;;;;;5063125;28;20456;-94
2023/04/13 20:14:22;;;;;;;2.13;1.40;;;20.70;61.90;;;;;;5063358;28;20473;-94
2023/04/13 20:16:49;;;;;;;2.33;1.13;;;20.70;62.00;;;;;;5063691;28;20449;-94
2023/04/13 20:19:17;;;;;;;3.33;1.43;;;20.70;61.90;;;;;;5065640;28;20532;-93
2023/04/13 20:21:50;;;;;;;1.90;1.10;;;20.70;62.20;;;;;;5064120;28;20458;-94
2023/04/13 20:24:17;;;;;;;1.97;1.07;;;20.70;62.10;;;;;;5062339;28;20446;-94
2023/04/13 20:26:49;;;;;;;1.97;1.07;;;20.70;62.10;;;;;;5064143;28;20434;-94
2023/04/13 20:29:20;;;;;;;1.60;1.10;;;20.70;62.10;;;;;;5063922;28;20484;-93
2023/04/13 20:31:47;;;;;;;1.63;1.23;;;20.70;62.10;;;;;;5064370;28;20464;-94
2023/04/13 20:34:19;;;;;;;1.70;1.07;;;20.70;62.20;;;;;;5063796;28;20512;-93
2023/04/13 20:36:58;;;;;;;2.10;1.13;;;20.80;62.20;;;;;;5063972;28;20456;-92
2023/04/13 20:39:28;;;;;;;1.60;1.00;;;20.70;62.30;;;;;;5061900;28;20447;-95
2023/04/13 20:41:56;;;;;;;1.53;1.23;;;20.70;62.20;;;;;;5062772;28;20912;-93
2023/04/13 20:44:28;;;;;;;3.23;1.47;;;20.70;62.30;;;;;;5063919;28;20524;-95
2023/04/13 20:46:54;;;;;;;1.60;1.10;;;20.60;62.10;;;;;;5063177;28;20433;-92
2023/04/13 20:49:30;;;;;;;2.70;1.07;;;20.70;62.30;;;;;;5062298;28;20475;-96
2023/04/13 20:52:00;;;;;;;2.30;1.27;;;20.70;62.20;;;;;;5061497;28;20448;-94
2023/04/13 20:54:27;;;;;;;1.53;1.17;;;20.70;62.30;;;;;;5063177;28;20504;-92
2023/04/13 20:56:55;;;;;;;1.43;0.93;;;20.70;62.30;;;;;;5061465;28;20441;-92
2023/04/13 20:59:23;;;;;;;1.93;0.90;;;20.70;61.80;;;;;;5063244;28;20543;-92
2023/04/13 21:01:53;;;;;;;2.30;1.07;;;20.70;62.10;;;;;;5062912;28;20456;-93
2023/04/13 21:04:20;;;;;;;2.67;1.10;;;20.70;62.30;;;;;;5062533;28;20537;-93
2023/04/13 21:06:48;;;;;;;1.83;0.90;;;20.70;62.30;;;;;;5061397;28;20449;-94
2023/04/13 21:09:15;;;;;;;1.83;1.07;;;20.80;62.30;;;;;;5062263;28;20449;-92
2023/04/13 21:11:46;;;;;;;1.60;0.90;;;20.70;62.30;;;;;;5063611;28;20476;-95
2023/04/13 21:14:14;;;;;;;1.40;1.00;;;20.70;62.30;;;;;;5062898;28;20505;-92
2023/04/13 21:16:40;;;;;;;1.70;1.07;;;20.70;62.30;;;;;;5074355;28;20464;-90
2023/04/13 21:19:07;;;;;;;1.73;1.10;;;20.70;62.20;;;;;;5080881;28;20440;-92
2023/04/13 21:21:35;;;;;;;3.07;1.30;;;20.70;62.40;;;;;;5058853;28;20991;-90
2023/04/13 21:24:04;;;;;;;1.30;0.80;;;20.70;62.00;;;;;;5057165;28;20501;-93
2023/04/13 21:26:31;;;;;;;1.30;0.90;;;20.70;62.20;;;;;;5056177;28;20950;-94
2023/04/13 21:28:58;;;;;;;1.43;0.90;;;20.70;63.30;;;;;;5055610;28;20481;-89
2023/04/13 21:31:24;;;;;;;1.40;0.83;;;20.70;62.70;;;;;;5056331;28;20448;-90
2023/04/13 21:33:51;;;;;;;1.90;1.53;;;20.70;62.70;;;;;;5056532;28;20481;-89
2023/04/13 21:36:19;;;;;;;1.83;1.23;;;20.70;62.50;;;;;;5055895;28;20472;-89
2023/04/13 21:38:45;;;;;;;2.90;1.50;;;20.70;61.90;;;;;;5056608;28;20445;-88
2023/04/13 21:41:17;;;;;;;1.50;1.10;;;20.70;61.80;;;;;;5056422;28;20799;-94
2023/04/13 21:43:44;;;;;;;1.83;1.10;;;20.70;62.90;;;;;;5055764;28;20952;-89
2023/04/13 21:46:11;;;;;;;1.93;0.93;;;20.70;63.00;;;;;;5056623;28;20472;-94
2023/04/13 21:48:39;;;;;;;1.30;1.10;;;20.70;62.90;;;;;;5055727;28;20446;-93
2023/04/13 21:51:07;;;;;;;1.57;1.10;;;20.70;62.90;;;;;;5057102;28;20461;-89
2023/04/13 21:53:34;;;;;;;2.23;1.20;;;20.70;63.00;;;;;;5055792;28;20441;-89
2023/04/13 21:56:02;;;;;;;2.13;1.03;;;20.70;62.90;;;;;;5055854;28;20445;-94
2023/04/13 21:58:38;;;;;;;1.63;1.10;;;20.70;63.00;;;;;;5055993;28;20475;-94
2023/04/13 22:01:05;;;;;;;1.70;1.10;;;20.60;62.80;;;;;;5056067;28;20441;-92
2023/04/13 22:03:35;;;;;;;2.00;1.10;;;20.60;62.90;;;;;;5056244;28;20441;-93
2023/04/13 22:06:02;;;;;;;1.13;0.97;;;20.60;62.90;;;;;;5055516;28;20442;-92
2023/04/13 22:08:29;;;;;;;3.03;1.40;;;20.60;62.90;;;;;;5056097;28;20453;-94
2023/04/13 22:10:55;;;;;;;1.63;1.10;;;20.60;63.00;;;;;;5067231;28;20954;-90
2023/04/13 22:13:22;;;;;;;1.63;0.90;;;20.60;62.80;;;;;;5056188;28;20443;-94
2023/04/13 22:15:51;;;;;;;1.70;1.00;;;20.60;62.90;;;;;;5069488;28;20437;-89
2023/04/13 22:18:30;;;;;;;1.30;1.00;;;20.60;62.90;;;;;;5075537;28;20448;-89
2023/04/13 22:20:58;;;;;;;1.73;1.00;;;20.50;62.80;;;;;;5076919;28;20425;-89
2023/04/13 22:23:25;;;;;;;1.50;1.03;;;20.50;62.80;;;;;;5065073;28;20449;-92
2023/04/13 22:25:57;;;;;;;1.30;0.90;;;20.50;62.80;;;;;;5056325;28;20459;-94
2023/04/13 22:28:24;;;;;;;1.30;1.00;;;20.60;62.80;;;;;;5056104;28;20512;-94
2023/04/13 22:30:52;;;;;;;5.80;1.37;;;20.50;62.70;;;;;;5055710;28;20448;-94
2023/04/13 22:33:19;;;;;;;2.00;1.20;;;20.50;62.80;;;;;;5056337;28;20870;-93
2023/04/13 22:35:49;;;;;;;1.50;1.17;;;20.50;62.70;;;;;;5055177;28;20557;-93
2023/04/13 22:38:16;;;;;;;1.27;1.00;;;20.50;62.70;;;;;;5055416;28;20437;-93
2023/04/13 22:40:43;;;;;;;2.90;1.27;;;20.50;63.50;;;;;;5055684;28;20883;-93
2023/04/13 22:43:09;;;;;;;1.20;1.00;;;20.50;62.70;;;;;;5055403;28;20453;-94
2023/04/13 22:45:36;;;;;;;1.43;1.10;;;20.50;62.70;;;;;;5055088;28;20456;-93
2023/04/13 22:48:05;;;;;;;1.97;1.13;;;20.50;62.80;;;;;;5055369;28;20445;-94
2023/04/13 22:50:32;;;;;;;1.33;1.03;;;20.50;62.80;;;;;;5056160;28;20452;-93
2023/04/13 22:52:58;;;;;;;1.20;1.00;;;20.50;62.80;;;;;;5055272;28;20947;-93
2023/04/13 22:55:25;;;;;;;1.53;0.97;;;20.50;62.80;;;;;;5055269;28;20493;-94
2023/04/13 22:57:52;;;;;;;1.60;0.93;;;20.50;62.80;;;;;;5055097;28;20472;-94
2023/04/13 23:00:19;;;;;;;1.70;1.10;;;20.50;62.70;;;;;;5055043;28;20946;-93
2023/04/13 23:02:48;;;;;;;3.10;1.57;;;20.40;62.60;;;;;;5054625;28;20447;-93
2023/04/13 23:05:17;;;;;;;1.30;0.90;;;20.40;62.60;;;;;;5054830;28;20499;-92
2023/04/13 23:07:44;;;;;;;2.10;1.20;;;20.40;62.70;;;;;;5054816;28;20449;-94
2023/04/13 23:10:10;;;;;;;1.47;1.10;;;20.40;62.70;;;;;;5054904;28;20790;-92
2023/04/13 23:12:37;;;;;;;1.73;1.17;;;20.40;62.60;;;;;;5054985;28;20475;-89
2023/04/13 23:15:05;;;;;;;1.30;1.10;;;20.40;62.60;;;;;;5054229;28;20520;-88
2023/04/13 23:17:32;;;;;;;1.30;1.03;;;20.40;62.70;;;;;;5054211;28;20499;-93
2023/04/13 23:19:59;;;;;;;1.60;1.50;;;20.40;62.70;;;;;;5055317;28;20441;-89
2023/04/13 23:22:27;;;;;;;3.73;1.07;;;20.40;62.70;;;;;;5054662;28;20489;-90
2023/04/13 23:24:54;;;;;;;2.33;1.10;;;20.40;62.80;;;;;;5053733;28;20832;-93
2023/04/13 23:27:21;;;;;;;1.40;1.00;;;20.40;62.70;;;;;;5054460;28;20804;-91
2023/04/13 23:29:49;;;;;;;2.17;1.10;;;20.40;62.80;;;;;;5054605;28;20508;-93
2023/04/13 23:32:16;;;;;;;1.50;1.00;;;20.40;62.80;;;;;;5054274;28;20451;-89
2023/04/13 23:34:43;;;;;;;1.50;1.10;;;20.40;62.80;;;;;;5054310;28;20585;-93
2023/04/13 23:37:10;;;;;;;2.30;0.90;;;20.40;62.80;;;;;;5055409;28;20537;-90
2023/04/13 23:39:38;;;;;;;1.63;1.17;;;20.40;62.80;;;;;;5054911;28;20441;-89
2023/04/13 23:42:05;;;;;;;4.50;1.00;;;20.40;62.90;;;;;;5054638;28;20957;-89
2023/04/13 23:44:32;;;;;;;1.63;1.10;;;20.30;62.80;;;;;;5055140;28;20481;-93
2023/04/13 23:46:59;;;;;;;4.53;1.30;;;20.30;62.80;;;;;;5055034;28;20447;-91
2023/04/13 23:49:26;;;;;;;1.70;1.20;;;20.40;63.00;;;;;;5055482;28;20528;-89
2023/04/13 23:51:52;;;;;;;1.20;1.10;;;20.30;62.90;;;;;;5071294;28;20544;-90
2023/04/13 23:54:19;;;;;;;1.20;1.00;;;20.30;62.90;;;;;;5070790;28;20477;-89
2023/04/13 23:56:47;;;;;;;2.03;1.37;;;20.30;63.00;;;;;;5054227;28;20924;-92
2023/04/13 23:59:14;;;;;;;1.37;1.10;;;20.30;62.90;;;;;;5053596;28;20549;-94
